Meloria — IBXK — position and weather

sailwx.info

Track history (hours):
 
Tides and Currents Weather Stations Pressure Air Temp Water Temp Dewpoint Dewpoint Depression Visibility Wind Speed Wind Dir Waves Ship Positions

Meloria

Last reported at 2014-Nov-23 09:30 UTC. Time now 2014-Nov-23 09:57 UTC.
Position N 38°13' E 015°16'.

Length 176 m; draft 7.2 m.

Type: Tanker. MMSI: 247171100.

Date/timePositionNaut miles runAvg speedWind from/ knotsBaromVisibWave heightAir tempDewpointWater temp
2014-Nov-23 09:30N 38°13' E 015°16'0 0.0
2014-Nov-23 08:30N 38°13' E 015°16'0 0.0
2014-Nov-23 07:30N 38°13' E 015°16'0 0.0
2014-Nov-23 06:30N 38°13' E 015°16'0 0.0
2014-Nov-22 19:06N 38°13' E 015°16'0 0.0
2014-Nov-22 18:30N 38°13' E 015°16'0 0.0
2014-Nov-22 17:30N 38°13' E 015°16'0 0.0
2014-Nov-22 16:30N 38°13' E 015°16'0 0.0
2014-Nov-22 15:30N 38°13' E 015°16'0 0.0
2014-Nov-22 14:29N 38°13' E 015°16'0 0.0
2014-Nov-22 13:29N 38°13' E 015°16'0 0.0
2014-Nov-22 12:29N 38°13' E 015°16'0 0.0
2014-Nov-22 11:29N 38°13' E 015°16'0 0.0
2014-Nov-22 10:29N 38°13' E 015°16'0 0.0
2014-Nov-22 09:29N 38°13' E 015°16'0 0.0
2014-Nov-22 08:29N 38°13' E 015°16'0 0.0
2014-Nov-22 07:32N 38°13' E 015°16'0 0.0
2014-Nov-22 06:32N 38°13' E 015°16'0 0.0
2014-Nov-21 19:29N 38°13' E 015°16'0 0.0
2014-Nov-21 18:32N 38°13' E 015°16'0 0.0
2014-Nov-21 17:32N 38°13' E 015°16'0 0.0
2014-Nov-21 16:32N 38°13' E 015°16'0 0.2
2014-Nov-21 15:33N 38°13' E 015°16'2 2.2
2014-Nov-21 14:32N 38°13' E 015°19'0 0.0
2014-Nov-21 13:32N 38°13' E 015°19'0 0.0
2014-Nov-21 12:32N 38°13' E 015°19'0 0.0
2014-Nov-21 11:32N 38°13' E 015°19'0 0.0
2014-Nov-21 10:32N 38°13' E 015°19'0 0.1
2014-Nov-21 09:29N 38°13' E 015°19'0 0.1
2014-Nov-21 08:29N 38°13' E 015°19'0 0.0
2014-Nov-21 07:29N 38°13' E 015°19'0 0.0
2014-Nov-21 06:26N 38°13' E 015°19'0 0.0
2014-Nov-20 19:08N 38°13' E 015°19'0 0.0
2014-Nov-20 18:29N 38°13' E 015°19'0 0.1
2014-Nov-20 17:29N 38°13' E 015°19'0 0.1
2014-Nov-20 16:29N 38°13' E 015°19'0 0.0
2014-Nov-20 15:29N 38°13' E 015°19'0 0.0
2014-Nov-20 14:29N 38°13' E 015°19'0 0.0
2014-Nov-20 13:28N 38°13' E 015°19'0 0.0
2014-Nov-20 12:28N 38°13' E 015°19'0 0.0
2014-Nov-20 11:28N 38°13' E 015°19'0 0.0
2014-Nov-20 10:28N 38°13' E 015°19'0 0.1
2014-Nov-20 09:28N 38°13' E 015°19'0 0.0
2014-Nov-20 08:31N 38°13' E 015°19'0 0.1
2014-Nov-20 07:31N 38°13' E 015°19'0 0.1
2014-Nov-20 06:31N 38°13' E 015°19'141 7.3
2014-Nov-19 11:10N 40°25' E 014°13'812.7
2014-Nov-19 10:33N 40°32' E 014°09'1212.3
2014-Nov-19 09:33N 40°44' E 014°15'  
2014-Nov-17 04:33N 40°50' E 014°18'6 5.8
2014-Nov-17 03:33N 40°44' E 014°17'2 1.7
2014-Nov-17 02:33N 40°43' E 014°16'1 0.8
2014-Nov-17 01:33N 40°42' E 014°15'1 0.8
2014-Nov-17 00:33N 40°42' E 014°14'1 0.8
2014-Nov-16 23:33N 40°42' E 014°13'8 8.4
2014-Nov-16 22:33N 40°34' E 014°07'1312.4
2014-Nov-16 21:33N 40°22' E 014°10'1212.5
2014-Nov-16 20:33N 40°11' E 014°18'12512.5
2014-Nov-16 10:34N 38°15' E 015°17'3 2.7
2014-Nov-16 09:32N 38°13' E 015°16'0 0.0
2014-Nov-16 08:32N 38°13' E 015°16'0 0.0
2014-Nov-16 07:26N 38°13' E 015°16'0 0.0
2014-Nov-16 06:29N 38°13' E 015°16'0 0.0
2014-Nov-15 18:14N 38°13' E 015°16'0 0.0
2014-Nov-15 17:32N 38°13' E 015°16'0 0.0
2014-Nov-15 16:32N 38°13' E 015°16'0 0.0
2014-Nov-15 15:32N 38°13' E 015°16'0 0.0
2014-Nov-15 14:32N 38°13' E 015°16'0 0.0
2014-Nov-15 13:31N 38°13' E 015°16'0 0.0
2014-Nov-15 12:31N 38°13' E 015°16'0 0.0
2014-Nov-15 11:31N 38°13' E 015°16'0 0.0
2014-Nov-15 10:28N 38°13' E 015°16'0 0.0
2014-Nov-15 09:28N 38°13' E 015°16'0 0.0
2014-Nov-15 08:28N 38°13' E 015°16'0 0.0
2014-Nov-15 07:28N 38°13' E 015°16'0 0.0
2014-Nov-15 06:25N 38°13' E 015°16'1 0.1
2014-Nov-14 18:26N 38°13' E 015°18'0 0.0
2014-Nov-14 17:31N 38°13' E 015°18'0 0.0
2014-Nov-14 16:31N 38°13' E 015°17'0 0.1
2014-Nov-14 15:31N 38°13' E 015°18'0 0.0
2014-Nov-14 14:31N 38°13' E 015°18'0 0.0
2014-Nov-14 12:31N 38°13' E 015°18'0 0.0
2014-Nov-14 11:31N 38°13' E 015°18'0 0.0
2014-Nov-14 10:31N 38°13' E 015°18'0 0.0
2014-Nov-14 09:31N 38°13' E 015°18'0 0.0
2014-Nov-14 08:31N 38°13' E 015°18'0 0.0
2014-Nov-14 07:31N 38°13' E 015°18'0 0.0
2014-Nov-14 06:31N 38°13' E 015°18'0 0.0
2014-Nov-13 18:22N 38°13' E 015°18'0 0.1
2014-Nov-13 17:28N 38°13' E 015°18'0 0.1
2014-Nov-13 16:28N 38°13' E 015°17'0 0.1
2014-Nov-13 15:31N 38°13' E 015°18'0 0.1
2014-Nov-13 14:31N 38°13' E 015°18'0 0.0
2014-Nov-13 13:31N 38°13' E 015°18'0 0.1
2014-Nov-13 12:31N 38°13' E 015°18'0 0.1
2014-Nov-13 11:31N 38°13' E 015°17'0 0.2
2014-Nov-13 10:31N 38°13' E 015°17'0 0.0
2014-Nov-13 09:31N 38°13' E 015°17'  
Track history (hours):
 
Tides and Currents Weather Stations Pressure Air Temp Water Temp Dewpoint Dewpoint Depression Visibility Wind Speed Wind Dir Waves Ship Positions

Meloria

Last reported at 2014-Nov-23 09:30 UTC. Time now 2014-Nov-23 09:57 UTC.
Position N 38°13' E 015°16'.

Length 176 m; draft 7.2 m.

Type: Tanker. MMSI: 247171100.

Date/timePositionNaut miles runAvg speedWind from/ knotsBaromVisibWave heightAir tempDewpointWater temp
2014-Nov-23 09:30N 38°13' E 015°16'0 0.0
2014-Nov-23 08:30N 38°13' E 015°16'0 0.0
2014-Nov-23 07:30N 38°13' E 015°16'0 0.0
2014-Nov-23 06:30N 38°13' E 015°16'0 0.0
2014-Nov-22 19:06N 38°13' E 015°16'0 0.0
2014-Nov-22 18:30N 38°13' E 015°16'0 0.0
2014-Nov-22 17:30N 38°13' E 015°16'0 0.0
2014-Nov-22 16:30N 38°13' E 015°16'0 0.0
2014-Nov-22 15:30N 38°13' E 015°16'0 0.0
2014-Nov-22 14:29N 38°13' E 015°16'0 0.0
2014-Nov-22 13:29N 38°13' E 015°16'0 0.0
2014-Nov-22 12:29N 38°13' E 015°16'0 0.0
2014-Nov-22 11:29N 38°13' E 015°16'0 0.0
2014-Nov-22 10:29N 38°13' E 015°16'0 0.0
2014-Nov-22 09:29N 38°13' E 015°16'0 0.0
2014-Nov-22 08:29N 38°13' E 015°16'0 0.0
2014-Nov-22 07:32N 38°13' E 015°16'0 0.0
2014-Nov-22 06:32N 38°13' E 015°16'0 0.0
2014-Nov-21 19:29N 38°13' E 015°16'0 0.0
2014-Nov-21 18:32N 38°13' E 015°16'0 0.0
2014-Nov-21 17:32N 38°13' E 015°16'0 0.0
2014-Nov-21 16:32N 38°13' E 015°16'0 0.2
2014-Nov-21 15:33N 38°13' E 015°16'2 2.2
2014-Nov-21 14:32N 38°13' E 015°19'0 0.0
2014-Nov-21 13:32N 38°13' E 015°19'0 0.0
2014-Nov-21 12:32N 38°13' E 015°19'0 0.0
2014-Nov-21 11:32N 38°13' E 015°19'0 0.0
2014-Nov-21 10:32N 38°13' E 015°19'0 0.1
2014-Nov-21 09:29N 38°13' E 015°19'0 0.1
2014-Nov-21 08:29N 38°13' E 015°19'0 0.0
2014-Nov-21 07:29N 38°13' E 015°19'0 0.0
2014-Nov-21 06:26N 38°13' E 015°19'0 0.0
2014-Nov-20 19:08N 38°13' E 015°19'0 0.0
2014-Nov-20 18:29N 38°13' E 015°19'0 0.1
2014-Nov-20 17:29N 38°13' E 015°19'0 0.1
2014-Nov-20 16:29N 38°13' E 015°19'0 0.0
2014-Nov-20 15:29N 38°13' E 015°19'0 0.0
2014-Nov-20 14:29N 38°13' E 015°19'0 0.0
2014-Nov-20 13:28N 38°13' E 015°19'0 0.0
2014-Nov-20 12:28N 38°13' E 015°19'0 0.0
2014-Nov-20 11:28N 38°13' E 015°19'0 0.0
2014-Nov-20 10:28N 38°13' E 015°19'0 0.1
2014-Nov-20 09:28N 38°13' E 015°19'0 0.0
2014-Nov-20 08:31N 38°13' E 015°19'0 0.1
2014-Nov-20 07:31N 38°13' E 015°19'0 0.1
2014-Nov-20 06:31N 38°13' E 015°19'141 7.3
2014-Nov-19 11:10N 40°25' E 014°13'812.7
2014-Nov-19 10:33N 40°32' E 014°09'1212.3
2014-Nov-19 09:33N 40°44' E 014°15'  
2014-Nov-17 04:33N 40°50' E 014°18'6 5.8
2014-Nov-17 03:33N 40°44' E 014°17'2 1.7
2014-Nov-17 02:33N 40°43' E 014°16'1 0.8
2014-Nov-17 01:33N 40°42' E 014°15'1 0.8
2014-Nov-17 00:33N 40°42' E 014°14'1 0.8
2014-Nov-16 23:33N 40°42' E 014°13'8 8.4
2014-Nov-16 22:33N 40°34' E 014°07'1312.4
2014-Nov-16 21:33N 40°22' E 014°10'1212.5
2014-Nov-16 20:33N 40°11' E 014°18'12512.5
2014-Nov-16 10:34N 38°15' E 015°17'3 2.7
2014-Nov-16 09:32N 38°13' E 015°16'0 0.0
2014-Nov-16 08:32N 38°13' E 015°16'0 0.0
2014-Nov-16 07:26N 38°13' E 015°16'0 0.0
2014-Nov-16 06:29N 38°13' E 015°16'0 0.0
2014-Nov-15 18:14N 38°13' E 015°16'0 0.0
2014-Nov-15 17:32N 38°13' E 015°16'0 0.0
2014-Nov-15 16:32N 38°13' E 015°16'0 0.0
2014-Nov-15 15:32N 38°13' E 015°16'0 0.0
2014-Nov-15 14:32N 38°13' E 015°16'0 0.0
2014-Nov-15 13:31N 38°13' E 015°16'0 0.0
2014-Nov-15 12:31N 38°13' E 015°16'0 0.0
2014-Nov-15 11:31N 38°13' E 015°16'0 0.0
2014-Nov-15 10:28N 38°13' E 015°16'0 0.0
2014-Nov-15 09:28N 38°13' E 015°16'0 0.0
2014-Nov-15 08:28N 38°13' E 015°16'0 0.0
2014-Nov-15 07:28N 38°13' E 015°16'0 0.0
2014-Nov-15 06:25N 38°13' E 015°16'1 0.1
2014-Nov-14 18:26N 38°13' E 015°18'0 0.0
2014-Nov-14 17:31N 38°13' E 015°18'0 0.0
2014-Nov-14 16:31N 38°13' E 015°17'0 0.1
2014-Nov-14 15:31N 38°13' E 015°18'0 0.0
2014-Nov-14 14:31N 38°13' E 015°18'0 0.0
2014-Nov-14 12:31N 38°13' E 015°18'0 0.0
2014-Nov-14 11:31N 38°13' E 015°18'0 0.0
2014-Nov-14 10:31N 38°13' E 015°18'0 0.0
2014-Nov-14 09:31N 38°13' E 015°18'0 0.0
2014-Nov-14 08:31N 38°13' E 015°18'0 0.0
2014-Nov-14 07:31N 38°13' E 015°18'0 0.0
2014-Nov-14 06:31N 38°13' E 015°18'0 0.0
2014-Nov-13 18:22N 38°13' E 015°18'0 0.1
2014-Nov-13 17:28N 38°13' E 015°18'0 0.1
2014-Nov-13 16:28N 38°13' E 015°17'0 0.1
2014-Nov-13 15:31N 38°13' E 015°18'0 0.1
2014-Nov-13 14:31N 38°13' E 015°18'0 0.0
2014-Nov-13 13:31N 38°13' E 015°18'0 0.1
2014-Nov-13 12:31N 38°13' E 015°18'0 0.1
2014-Nov-13 11:31N 38°13' E 015°17'0 0.2
2014-Nov-13 10:31N 38°13' E 015°17'0 0.0
2014-Nov-13 09:31N 38°13' E 015°17'  

Dump ship's entire track history